createdAt,value
2023-05-19T00:01:15.343Z,4.97
2023-05-19T00:03:55.293Z,4.82
2023-05-19T00:06:23.882Z,6.68
2023-05-19T00:08:51.546Z,7.82
2023-05-19T00:11:18.845Z,5.82
2023-05-19T00:13:49.785Z,6.30
2023-05-19T00:16:17.717Z,8.43
2023-05-19T00:18:45.270Z,5.80
2023-05-19T00:21:12.497Z,6.32
2023-05-19T00:23:39.409Z,22.70
2023-05-19T00:26:06.395Z,17.27
2023-05-19T00:28:33.332Z,8.52
2023-05-19T00:31:01.304Z,7.38
2023-05-19T00:33:28.553Z,5.88
2023-05-19T00:35:55.569Z,7.70
2023-05-19T00:38:22.437Z,5.97
2023-05-19T00:40:49.509Z,8.93
2023-05-19T00:43:16.636Z,5.60
2023-05-19T00:45:43.885Z,8.07
2023-05-19T00:48:11.071Z,6.22
2023-05-19T00:50:38.193Z,7.03
2023-05-19T00:53:05.338Z,5.47
2023-05-19T00:55:32.491Z,6.20
2023-05-19T00:58:00.051Z,7.90
2023-05-19T01:00:26.987Z,6.57
2023-05-19T01:02:54.628Z,8.23
2023-05-19T01:05:21.557Z,5.80
2023-05-19T01:07:52.219Z,6.93
2023-05-19T01:10:19.850Z,6.80
2023-05-19T01:12:47.371Z,6.47
2023-05-19T01:15:14.527Z,6.57
2023-05-19T01:17:49.816Z,6.72
2023-05-19T01:20:17.613Z,6.68
2023-05-19T01:22:55.088Z,5.90
2023-05-19T01:25:31.153Z,6.90
2023-05-19T01:28:24.740Z,6.43
2023-05-19T01:30:53.834Z,7.35
2023-05-19T01:33:21.475Z,7.22
2023-05-19T01:35:49.452Z,7.30
2023-05-19T01:38:19.056Z,6.75
2023-05-19T01:40:47.538Z,6.95
2023-05-19T01:43:17.049Z,6.95
2023-05-19T01:45:44.535Z,7.20
2023-05-19T01:48:13.227Z,6.53
2023-05-19T01:50:41.066Z,7.47
2023-05-19T01:53:08.611Z,6.60
2023-05-19T01:55:36.162Z,6.10
2023-05-19T01:58:09.253Z,6.18
2023-05-19T02:03:41.061Z,6.05
2023-05-19T02:06:08.326Z,5.57
2023-05-19T02:08:39.766Z,7.88
2023-05-19T02:11:12.382Z,6.38
2023-05-19T02:13:41.749Z,5.68
2023-05-19T02:16:09.362Z,7.63
2023-05-19T02:18:36.263Z,6.95
2023-05-19T02:21:03.288Z,7.60
2023-05-19T02:23:30.171Z,6.70
2023-05-19T02:25:57.930Z,6.47
2023-05-19T02:28:28.527Z,7.00
2023-05-19T02:30:55.711Z,6.40
2023-05-19T02:33:24.805Z,7.60
2023-05-19T02:35:51.712Z,7.57
2023-05-19T02:38:18.756Z,7.28
2023-05-19T02:40:45.801Z,6.88
2023-05-19T02:43:12.967Z,7.97
2023-05-19T02:45:40.718Z,8.25
2023-05-19T02:48:07.815Z,6.95
2023-05-19T02:50:35.061Z,6.00
2023-05-19T02:53:02.728Z,5.68
2023-05-19T02:55:29.924Z,7.78
2023-05-19T02:57:56.876Z,6.32
2023-05-19T03:00:24.479Z,7.80
2023-05-19T03:02:53.579Z,6.68
2023-05-19T03:05:20.965Z,9.63
2023-05-19T03:07:47.971Z,6.47
2023-05-19T03:10:15.104Z,5.70
2023-05-19T03:12:41.966Z,6.40
2023-05-19T03:15:09.269Z,6.78
2023-05-19T03:17:36.524Z,6.85
2023-05-19T03:20:05.614Z,5.13
2023-05-19T03:22:33.638Z,7.30
2023-05-19T03:25:00.679Z,6.40
2023-05-19T03:27:27.710Z,7.47
2023-05-19T03:29:55.211Z,8.85
2023-05-19T03:32:23.191Z,6.85
2023-05-19T03:34:50.362Z,6.45
2023-05-19T03:37:17.516Z,6.47
2023-05-19T03:39:45.379Z,7.43
2023-05-19T03:42:12.671Z,7.38
2023-05-19T03:44:39.936Z,8.80
2023-05-19T03:47:07.298Z,7.50
2023-05-19T03:49:52.912Z,6.57
2023-05-19T03:52:20.075Z,6.78
2023-05-19T03:54:54.641Z,6.15
2023-05-19T03:57:21.836Z,9.15
2023-05-19T03:59:49.353Z,9.15
2023-05-19T04:02:16.787Z,7.13
2023-05-19T04:04:44.178Z,6.13
2023-05-19T04:07:11.966Z,5.93
2023-05-19T04:09:39.285Z,6.97
2023-05-19T04:12:06.468Z,7.38
2023-05-19T04:14:33.636Z,6.70
2023-05-19T04:17:00.623Z,5.30
2023-05-19T04:19:27.790Z,8.35
2023-05-19T04:21:55.662Z,4.65
2023-05-19T04:24:22.641Z,6.82
2023-05-19T04:26:50.079Z,5.65
2023-05-19T04:29:18.803Z,5.18
2023-05-19T04:31:46.114Z,6.93
2023-05-19T04:34:13.436Z,5.70
2023-05-19T04:36:40.701Z,5.32
2023-05-19T04:39:10.198Z,7.03
2023-05-19T04:41:44.900Z,5.22
2023-05-19T04:44:13.953Z,4.82
2023-05-19T04:46:42.929Z,3.85
2023-05-19T04:49:12.859Z,6.45
2023-05-19T04:51:41.865Z,5.63
2023-05-19T04:54:10.294Z,4.22
2023-05-19T04:56:37.550Z,5.43
2023-05-19T04:59:05.066Z,4.45
2023-05-19T05:01:33.204Z,5.38
2023-05-19T05:04:03.011Z,3.88
2023-05-19T05:06:31.911Z,8.32
2023-05-19T05:09:00.321Z,5.95
2023-05-19T05:11:28.049Z,11.50
2023-05-19T05:13:58.457Z,3.97
2023-05-19T05:16:28.066Z,4.05
2023-05-19T05:18:57.645Z,3.30
2023-05-19T05:21:25.052Z,4.80
2023-05-19T05:23:52.570Z,5.75
2023-05-19T05:26:24.039Z,3.38
2023-05-19T05:28:55.313Z,5.28
2023-05-19T05:31:22.490Z,4.75
2023-05-19T05:33:49.619Z,5.10
2023-05-19T05:36:20.430Z,5.22
2023-05-19T05:38:47.545Z,4.32
2023-05-19T05:41:14.841Z,4.70
2023-05-19T05:43:42.102Z,6.10
2023-05-19T05:46:09.349Z,3.92
2023-05-19T05:48:36.890Z,5.20
2023-05-19T05:51:06.106Z,6.93
2023-05-19T05:53:34.981Z,5.18
2023-05-19T05:56:02.229Z,5.45
2023-05-19T05:58:38.100Z,6.35
2023-05-19T06:01:05.638Z,4.20
2023-05-19T06:03:33.647Z,5.15
2023-05-19T06:06:05.723Z,5.18
2023-05-19T06:08:34.566Z,5.13
2023-05-19T06:11:01.776Z,5.15
2023-05-19T06:13:30.298Z,4.75
2023-05-19T06:15:59.214Z,3.83
2023-05-19T06:18:32.731Z,5.40
2023-05-19T06:21:01.816Z,5.85
2023-05-19T06:23:29.462Z,6.80
2023-05-19T06:25:56.898Z,5.07
2023-05-19T06:28:24.090Z,4.70
2023-05-19T06:30:51.856Z,3.95
2023-05-19T06:33:38.740Z,3.92
2023-05-19T06:36:05.661Z,6.72
2023-05-19T06:38:32.762Z,6.43
2023-05-19T06:41:00.631Z,4.35
2023-05-19T06:43:30.711Z,5.70
2023-05-19T06:46:02.918Z,5.10
2023-05-19T06:48:31.666Z,6.25
2023-05-19T06:50:58.958Z,6.10
2023-05-19T06:53:26.623Z,6.10
2023-05-19T06:55:59.873Z,3.53
2023-05-19T06:58:30.386Z,5.90
2023-05-19T07:00:58.461Z,3.58
2023-05-19T07:03:31.130Z,4.65
2023-05-19T07:05:58.603Z,5.38
2023-05-19T07:08:25.271Z,3.85
2023-05-19T07:10:51.814Z,4.72
2023-05-19T07:13:18.637Z,5.28
2023-05-19T07:15:45.903Z,3.58
2023-05-19T07:18:12.547Z,4.63
2023-05-19T07:20:39.280Z,5.45
2023-05-19T07:23:05.944Z,4.03
2023-05-19T07:25:33.330Z,3.75
2023-05-19T07:27:59.928Z,3.63
2023-05-19T07:30:27.892Z,4.32
2023-05-19T07:32:54.672Z,4.22
2023-05-19T07:35:24.900Z,4.85
2023-05-19T07:37:52.386Z,4.88
2023-05-19T07:40:18.922Z,3.92
2023-05-19T07:42:45.531Z,5.30
2023-05-19T07:45:12.099Z,4.35
2023-05-19T07:47:38.750Z,4.38
2023-05-19T07:50:05.565Z,3.22
2023-05-19T07:52:32.111Z,4.13
2023-05-19T07:54:59.320Z,3.53
2023-05-19T07:57:26.029Z,3.85
2023-05-19T07:59:52.655Z,4.35
2023-05-19T08:02:19.202Z,4.72
2023-05-19T08:04:45.928Z,4.63
2023-05-19T08:07:12.499Z,4.25
2023-05-19T08:09:39.080Z,4.07
2023-05-19T08:12:05.781Z,5.82
2023-05-19T08:14:33.447Z,6.78
2023-05-19T08:17:00.017Z,6.47
2023-05-19T08:19:27.074Z,4.00
2023-05-19T08:21:53.695Z,5.70
2023-05-19T08:24:20.239Z,5.50
2023-05-19T08:26:46.796Z,5.25
2023-05-19T08:29:13.377Z,5.35
2023-05-19T08:31:40.017Z,3.65
2023-05-19T08:34:06.752Z,4.32
2023-05-19T08:36:33.978Z,4.90
2023-05-19T08:39:00.575Z,8.65
2023-05-19T08:41:27.528Z,5.32
2023-05-19T08:43:54.323Z,11.30
2023-05-19T08:46:21.884Z,5.13
2023-05-19T08:48:48.694Z,4.40
2023-05-19T08:51:20.613Z,5.25
2023-05-19T08:53:50.449Z,7.03
2023-05-19T08:56:24.247Z,4.60
2023-05-19T08:58:51.476Z,4.50
2023-05-19T09:01:19.544Z,5.75
2023-05-19T09:03:47.411Z,6.90
2023-05-19T09:06:15.074Z,6.60
2023-05-19T09:08:42.542Z,5.40
2023-05-19T09:11:10.300Z,4.80
2023-05-19T09:13:37.145Z,7.20
2023-05-19T09:16:04.494Z,5.90
2023-05-19T09:18:31.627Z,7.05
2023-05-19T09:21:00.348Z,6.32
2023-05-19T09:23:28.920Z,5.53
2023-05-19T09:25:56.457Z,6.47
2023-05-19T09:28:24.150Z,6.03
2023-05-19T09:30:58.970Z,5.60
2023-05-19T09:33:25.902Z,5.53
2023-05-19T09:35:54.356Z,5.60
2023-05-19T09:38:21.727Z,4.30
2023-05-19T09:40:50.133Z,6.30
2023-05-19T09:43:17.041Z,5.75
2023-05-19T09:45:44.322Z,6.32
2023-05-19T09:48:11.358Z,8.57
2023-05-19T09:50:38.374Z,5.80
2023-05-19T09:53:05.336Z,5.28
2023-05-19T09:55:33.613Z,6.93
2023-05-19T09:58:04.052Z,6.50
2023-05-19T10:00:32.847Z,7.68
2023-05-19T10:03:00.604Z,7.82
2023-05-19T10:05:27.854Z,5.47
2023-05-19T10:07:55.151Z,7.50
2023-05-19T10:10:23.041Z,6.85
2023-05-19T10:12:50.191Z,8.95
2023-05-19T10:15:17.954Z,5.70
2023-05-19T10:17:45.544Z,7.78
2023-05-19T10:20:16.730Z,5.20
2023-05-19T10:22:45.191Z,7.22
2023-05-19T10:25:15.239Z,6.07
2023-05-19T10:27:46.504Z,5.07
2023-05-19T10:30:19.213Z,9.13
2023-05-19T10:32:48.733Z,5.75
2023-05-19T10:35:15.769Z,4.63
2023-05-19T10:37:45.678Z,6.35
2023-05-19T10:40:17.435Z,5.63
2023-05-19T10:42:58.306Z,5.95
2023-05-19T10:45:28.758Z,7.35
2023-05-19T10:47:56.297Z,5.63
2023-05-19T10:50:23.423Z,6.97
2023-05-19T10:52:56.811Z,6.93
2023-05-19T10:55:50.274Z,5.72
2023-05-19T10:58:36.580Z,5.28
2023-05-19T11:01:07.210Z,5.65
2023-05-19T11:03:43.365Z,5.63
2023-05-19T11:06:19.217Z,7.22
2023-05-19T11:08:48.097Z,7.72
2023-05-19T11:11:15.561Z,5.25
2023-05-19T11:13:50.731Z,7.75
2023-05-19T11:16:35.755Z,6.22
2023-05-19T11:19:02.967Z,6.50
2023-05-19T11:21:43.221Z,5.97
2023-05-19T11:24:10.753Z,8.88
2023-05-19T11:26:42.607Z,7.05
2023-05-19T11:29:09.547Z,5.13
2023-05-19T11:31:36.813Z,6.95
2023-05-19T11:34:05.673Z,6.00
2023-05-19T11:36:33.369Z,6.57
2023-05-19T11:39:00.408Z,6.35
2023-05-19T11:41:28.670Z,6.13
2023-05-19T11:43:55.714Z,5.25
2023-05-19T11:46:23.169Z,7.90
2023-05-19T11:48:50.642Z,6.38
2023-05-19T11:51:17.893Z,6.20
2023-05-19T11:53:46.267Z,6.75
2023-05-19T11:56:13.514Z,6.10
2023-05-19T11:58:43.015Z,7.32
2023-05-19T12:01:10.487Z,7.05
2023-05-19T12:03:37.751Z,6.53
2023-05-19T12:06:06.975Z,6.45
2023-05-19T12:08:35.095Z,6.80
2023-05-19T12:11:02.276Z,5.90
2023-05-19T12:13:29.295Z,6.72
2023-05-19T12:15:59.654Z,5.93
2023-05-19T12:18:29.745Z,6.63
2023-05-19T12:20:57.315Z,6.18
2023-05-19T12:23:25.194Z,7.72
2023-05-19T12:25:52.723Z,5.82
2023-05-19T12:28:19.782Z,6.40
2023-05-19T12:30:52.396Z,5.90
2023-05-19T12:33:19.994Z,6.47
2023-05-19T12:35:48.181Z,6.72
2023-05-19T12:38:16.150Z,6.50
2023-05-19T12:40:45.453Z,6.75
2023-05-19T12:43:24.605Z,6.85
2023-05-19T12:45:52.537Z,6.22
2023-05-19T12:48:22.895Z,7.53
2023-05-19T12:50:52.092Z,5.40
2023-05-19T12:53:20.717Z,5.30
2023-05-19T12:55:47.912Z,7.63
2023-05-19T12:58:16.179Z,6.28
2023-05-19T13:00:45.128Z,6.00
2023-05-19T13:03:19.696Z,7.88
2023-05-19T13:05:48.591Z,6.97
2023-05-19T13:08:17.264Z,6.20
2023-05-19T13:10:44.734Z,7.35
2023-05-19T13:13:12.186Z,6.03
2023-05-19T13:15:43.950Z,5.47
2023-05-19T13:18:12.323Z,7.55
2023-05-19T13:20:39.848Z,5.93
2023-05-19T13:23:07.031Z,6.13
2023-05-19T13:25:34.694Z,7.35
2023-05-19T13:28:05.246Z,5.05
2023-05-19T13:30:36.352Z,6.65
2023-05-19T13:33:03.823Z,8.27
2023-05-19T13:35:37.657Z,7.82
2023-05-19T13:38:05.761Z,5.53
2023-05-19T13:40:35.628Z,6.35
2023-05-19T13:43:03.486Z,5.80
2023-05-19T13:45:30.684Z,8.15
2023-05-19T13:47:57.838Z,5.93
2023-05-19T13:50:24.923Z,6.43
2023-05-19T13:52:52.149Z,6.25
2023-05-19T13:55:19.389Z,6.88
2023-05-19T13:57:46.357Z,8.77
2023-05-19T14:00:13.639Z,9.80
2023-05-19T14:02:40.843Z,5.68
2023-05-19T14:05:08.858Z,6.88
2023-05-19T14:07:39.171Z,8.43
2023-05-19T14:10:07.059Z,6.38
2023-05-19T14:12:44.937Z,6.88
2023-05-19T14:15:19.569Z,9.05
2023-05-19T14:17:46.581Z,6.47
2023-05-19T14:20:13.650Z,7.72
2023-05-19T14:22:40.752Z,6.25
2023-05-19T14:25:07.799Z,7.40
2023-05-19T14:27:35.308Z,6.60
2023-05-19T14:30:02.157Z,6.90
2023-05-19T14:32:30.609Z,7.05
2023-05-19T14:34:57.772Z,7.95
2023-05-19T14:37:26.771Z,7.85
2023-05-19T14:39:53.937Z,8.40
2023-05-19T14:42:21.069Z,6.75
2023-05-19T14:44:48.117Z,6.50
2023-05-19T14:47:15.016Z,8.23
2023-05-19T14:49:41.592Z,9.35
2023-05-19T14:52:08.171Z,7.40
2023-05-19T14:54:34.817Z,7.40
2023-05-19T14:57:02.118Z,8.48
2023-05-19T14:59:29.709Z,6.35
2023-05-19T15:01:56.283Z,8.68
2023-05-19T15:04:23.107Z,7.72
2023-05-19T15:06:58.168Z,8.70
2023-05-19T15:09:35.814Z,8.95
2023-05-19T15:12:02.465Z,8.38
2023-05-19T15:14:30.764Z,7.28
2023-05-19T15:16:58.216Z,7.10
2023-05-19T15:19:25.100Z,7.88
2023-05-19T15:21:51.872Z,9.70
2023-05-19T15:24:19.257Z,9.98
2023-05-19T15:26:45.920Z,8.30
2023-05-19T15:29:12.561Z,8.18
2023-05-19T15:31:39.360Z,6.38
2023-05-19T15:34:06.553Z,7.72
2023-05-19T15:36:33.273Z,7.57
2023-05-19T15:39:07.855Z,9.90
2023-05-19T15:41:44.734Z,9.63
2023-05-19T15:44:17.873Z,9.68
2023-05-19T15:46:51.868Z,10.98
2023-05-19T15:49:27.476Z,11.80
2023-05-19T15:52:06.105Z,10.32
2023-05-19T15:54:44.046Z,8.88
2023-05-19T15:57:19.079Z,11.85
2023-05-19T15:59:54.557Z,11.70
2023-05-19T16:02:38.739Z,11.80
2023-05-19T16:05:25.315Z,30.52
2023-05-19T16:07:55.950Z,37.40
2023-05-19T16:10:40.906Z,27.63
2023-05-19T16:13:21.763Z,16.30
2023-05-19T16:15:55.386Z,11.05
2023-05-19T16:18:32.628Z,12.90
2023-05-19T16:21:02.782Z,12.77
2023-05-19T16:23:30.041Z,12.25
2023-05-19T16:25:57.921Z,14.23
2023-05-19T16:28:25.205Z,223.85
2023-05-19T16:30:51.952Z,85.10
2023-05-19T16:33:18.563Z,29.52
2023-05-19T16:35:45.192Z,14.20
2023-05-19T16:38:11.851Z,13.32
2023-05-19T16:40:38.794Z,52.67
2023-05-19T16:43:06.525Z,20.35
2023-05-19T16:45:33.429Z,32.33
2023-05-19T16:48:00.232Z,15.88
2023-05-19T16:50:26.810Z,204.10
2023-05-19T16:52:53.456Z,644.85
2023-05-19T16:55:20.368Z,592.05
2023-05-19T16:57:47.117Z,557.38
2023-05-19T17:00:14.487Z,558.17
2023-05-19T17:02:41.277Z,527.15
2023-05-19T17:05:08.198Z,582.88
2023-05-19T17:07:34.760Z,510.20
2023-05-19T17:10:01.350Z,205.02
2023-05-19T17:12:28.178Z,12.70
2023-05-19T17:14:54.721Z,10.88
2023-05-19T17:17:21.308Z,10.55
2023-05-19T17:19:47.940Z,11.85
2023-05-19T17:22:14.517Z,11.20
2023-05-19T17:24:41.388Z,11.30
2023-05-19T17:27:08.034Z,12.60
2023-05-19T17:29:34.894Z,37.08
2023-05-19T17:32:03.671Z,11.07
2023-05-19T17:34:30.747Z,8.95
2023-05-19T17:36:57.443Z,10.45
2023-05-19T17:39:24.512Z,10.98
2023-05-19T17:41:51.088Z,11.50
2023-05-19T17:44:17.627Z,11.40
2023-05-19T17:46:44.246Z,9.60
2023-05-19T17:49:13.004Z,13.20
2023-05-19T17:51:39.626Z,11.88
2023-05-19T17:54:06.737Z,11.75
2023-05-19T17:56:34.149Z,12.18
2023-05-19T17:59:01.000Z,10.38
2023-05-19T18:01:27.817Z,11.68
2023-05-19T18:03:54.760Z,11.80
2023-05-19T18:06:21.767Z,12.63
2023-05-19T18:08:50.742Z,10.40
2023-05-19T18:11:17.960Z,12.50
2023-05-19T18:13:44.618Z,11.57
2023-05-19T18:16:11.331Z,8.73
2023-05-19T18:18:40.143Z,9.30
2023-05-19T18:21:06.776Z,18.63
2023-05-19T18:23:33.371Z,10.40
2023-05-19T18:25:59.948Z,9.98
2023-05-19T18:28:26.614Z,11.50
2023-05-19T18:31:00.224Z,8.15
2023-05-19T18:33:28.472Z,14.18
2023-05-19T18:35:55.933Z,12.50
2023-05-19T18:38:23.819Z,11.57
2023-05-19T18:40:50.935Z,15.32
2023-05-19T18:43:17.928Z,18.33
2023-05-19T18:45:46.651Z,118.82
2023-05-19T18:48:13.571Z,184.88
2023-05-19T18:50:41.009Z,110.32
2023-05-19T18:53:07.616Z,24.25
2023-05-19T18:55:35.449Z,17.88
2023-05-19T18:58:03.157Z,15.98
2023-05-19T19:00:29.843Z,13.38
2023-05-19T19:02:56.481Z,12.85
2023-05-19T19:05:23.058Z,14.43
2023-05-19T19:07:50.228Z,13.95
2023-05-19T19:10:16.912Z,13.10
2023-05-19T19:12:43.507Z,15.13
2023-05-19T19:15:10.443Z,17.38
2023-05-19T19:17:37.222Z,13.80
2023-05-19T19:20:04.137Z,15.13
2023-05-19T19:22:30.862Z,11.35
2023-05-19T19:24:57.465Z,12.75
2023-05-19T19:27:26.174Z,13.30
2023-05-19T19:29:54.033Z,11.68
2023-05-19T19:32:20.645Z,12.43
2023-05-19T19:34:47.332Z,11.88
2023-05-19T19:37:14.541Z,15.13
2023-05-19T19:39:41.176Z,11.45
2023-05-19T19:42:07.710Z,12.50
2023-05-19T19:44:34.270Z,11.75
2023-05-19T19:47:00.789Z,15.57
2023-05-19T19:49:27.448Z,12.90
2023-05-19T19:51:54.065Z,11.50
2023-05-19T19:54:21.054Z,16.95
2023-05-19T19:56:47.640Z,16.35
2023-05-19T19:59:14.196Z,16.70
2023-05-19T20:01:40.966Z,18.77
2023-05-19T20:04:07.957Z,20.40
2023-05-19T20:06:35.327Z,18.58
2023-05-19T20:09:01.973Z,17.77
2023-05-19T20:11:28.638Z,18.90
2023-05-19T20:13:55.190Z,12.50
2023-05-19T20:16:22.166Z,14.27
2023-05-19T20:18:48.904Z,13.27
2023-05-19T20:21:15.498Z,14.77
2023-05-19T20:23:42.241Z,14.80
2023-05-19T20:26:12.769Z,14.10
2023-05-19T20:28:40.376Z,14.32
2023-05-19T20:31:07.509Z,14.50
2023-05-19T20:33:34.395Z,15.13
2023-05-19T20:36:01.028Z,13.82
2023-05-19T20:38:27.549Z,14.32
2023-05-19T20:40:54.721Z,13.82
2023-05-19T20:43:21.472Z,11.90
2023-05-19T20:45:48.071Z,12.60
2023-05-19T20:48:16.035Z,14.27
2023-05-19T20:50:42.765Z,13.85
2023-05-19T20:53:09.302Z,11.05
2023-05-19T20:55:38.801Z,14.07
2023-05-19T20:58:05.641Z,10.77
2023-05-19T21:00:32.591Z,11.65
2023-05-19T21:02:59.708Z,10.02
2023-05-19T21:05:26.328Z,12.05
2023-05-19T21:07:52.871Z,10.75
2023-05-19T21:10:19.458Z,11.75
2023-05-19T21:12:46.778Z,12.23
2023-05-19T21:15:13.484Z,11.55
2023-05-19T21:17:40.101Z,10.55
2023-05-19T21:20:07.010Z,10.05
2023-05-19T21:22:35.694Z,11.75
2023-05-19T21:25:02.280Z,8.68
2023-05-19T21:27:28.849Z,9.45
2023-05-19T21:29:55.418Z,9.43
2023-05-19T21:32:22.075Z,10.18
2023-05-19T21:34:48.759Z,11.25
2023-05-19T21:37:17.285Z,11.05
2023-05-19T21:39:44.087Z,9.10
2023-05-19T21:42:10.700Z,10.77
2023-05-19T21:44:37.418Z,9.95
2023-05-19T21:47:03.969Z,10.05
2023-05-19T21:49:31.387Z,9.80
2023-05-19T21:51:58.356Z,8.93
2023-05-19T21:54:24.955Z,12.55
2023-05-19T21:56:51.550Z,10.70
2023-05-19T21:59:18.185Z,9.13
2023-05-19T22:01:44.947Z,9.95
2023-05-19T22:04:11.837Z,8.43
2023-05-19T22:06:38.404Z,9.75
2023-05-19T22:09:05.256Z,8.55
2023-05-19T22:11:31.887Z,12.80
2023-05-19T22:13:58.451Z,7.85
2023-05-19T22:16:25.235Z,8.48
2023-05-19T22:18:51.886Z,8.00
2023-05-19T22:21:18.558Z,9.23
2023-05-19T22:23:45.211Z,8.48
2023-05-19T22:26:11.879Z,7.22
2023-05-19T22:28:38.417Z,8.10
2023-05-19T22:31:05.096Z,8.50
2023-05-19T22:33:31.770Z,9.07
2023-05-19T22:35:58.451Z,14.70
2023-05-19T22:38:25.110Z,14.88
2023-05-19T22:40:51.723Z,15.48
2023-05-19T22:43:18.300Z,12.98
2023-05-19T22:45:44.921Z,9.30
2023-05-19T22:48:11.638Z,10.32
2023-05-19T22:50:38.297Z,7.22
2023-05-19T22:53:04.811Z,8.80
2023-05-19T22:55:31.756Z,8.60
2023-05-19T22:57:58.561Z,8.88
2023-05-19T23:00:25.149Z,11.57
2023-05-19T23:02:51.843Z,12.65
2023-05-19T23:05:18.510Z,9.93
2023-05-19T23:07:45.085Z,9.55
2023-05-19T23:10:11.749Z,9.00
2023-05-19T23:12:40.068Z,10.55
2023-05-19T23:15:07.484Z,10.88
2023-05-19T23:17:34.067Z,8.75
2023-05-19T23:20:00.651Z,10.13
2023-05-19T23:22:27.329Z,10.02
2023-05-19T23:24:53.946Z,10.65
2023-05-19T23:27:20.580Z,13.30
2023-05-19T23:29:48.896Z,10.77
2023-05-19T23:32:16.056Z,10.40
2023-05-19T23:34:42.685Z,10.05
2023-05-19T23:37:09.278Z,11.23
2023-05-19T23:39:38.198Z,10.95
2023-05-19T23:42:05.692Z,9.05
2023-05-19T23:44:32.274Z,8.80
2023-05-19T23:46:58.896Z,9.73
2023-05-19T23:49:25.533Z,10.13
2023-05-19T23:51:52.495Z,9.85
2023-05-19T23:54:19.026Z,9.57
2023-05-19T23:56:45.672Z,9.68
2023-05-19T23:59:12.262Z,10.15
